Terminal Aerodrome Forecast
Issued by NWS

Current Version | Previous Version | Graphics & Text | Print | Product List | Glossary On
Versions: 1 2 3 4 5 6 7 8 9 10 11 12 13 14 15 16 17 18 19 20 21 22 23 24 25 26
000
FTUS41 KRLX 170800 AAB
TAFCKB
TAF AMD
KCKB 170855Z 1709/1806 00000KT P6SM OVC035
      TEMPO 1709/1711 BKN025
     FM171100 VRB03KT 4SM SHRA BR BKN025
     FM171200 VRB03KT 5SM -SHRA BR BKN015
     FM171400 23004KT P6SM BKN015
     FM171800 24005KT P6SM SCT025
     FM180100 00000KT P6SM SCT070=

USA.gov is the U.S. government's official web portal to all federal, state and local government web resources and services.